Time;durP1;ratioP1;P1;durP2;ratioP2;P2;SDS_P1;SDS_P2;PMS_P1;PMS_P2;Temp;Humidity;BMP_temperature;BMP_pressure;BME280_temperature;BME280_humidity;BME280_pressure;Samples;Min_cycle;Max_cycle;Signal;HPM_P1;HPM_P2
2022/05/19 00:01:04;;;;;;;3.88;0.50;;;;;;;;;;5052337;28;20033;-65
2022/05/19 00:03:33;;;;;;;3.40;0.60;;;;;;;;;;5051066;28;20051;-65
2022/05/19 00:06:00;;;;;;;2.40;0.50;;;;;;;;;;5052217;28;20037;-65
2022/05/19 00:08:27;;;;;;;1.27;0.40;;;;;;;;;;5053587;28;20203;-65
2022/05/19 00:10:55;;;;;;;2.47;0.50;;;;;;;;;;5054634;28;20043;-66
2022/05/19 00:13:26;;;;;;;2.05;0.50;;;;;;;;;;5051932;28;20102;-65
2022/05/19 00:15:53;;;;;;;3.15;0.63;;;;;;;;;;5050748;28;20052;-64
2022/05/19 00:18:20;;;;;;;1.42;0.40;;;;;;;;;;5050853;28;20040;-65
2022/05/19 00:20:46;;;;;;;7.72;0.70;;;;;;;;;;5050961;28;20041;-64
2022/05/19 00:23:14;;;;;;;2.97;0.70;;;;;;;;;;5051148;28;20043;-64
2022/05/19 00:25:40;;;;;;;1.17;0.40;;;;;;;;;;5047569;28;20044;-65
2022/05/19 00:28:07;;;;;;;2.78;0.60;;;;;;;;;;5048779;28;20041;-65
2022/05/19 00:30:34;;;;;;;3.67;0.60;;;;;;;;;;5048157;28;20029;-65
2022/05/19 00:33:01;;;;;;;2.28;0.50;;;;;;;;;;5055286;28;20417;-64
2022/05/19 00:35:28;;;;;;;2.35;0.60;;;;;;;;;;5054547;28;20051;-64
2022/05/19 00:37:55;;;;;;;3.15;0.57;;;;;;;;;;5052840;28;20045;-65
2022/05/19 00:40:23;;;;;;;2.60;0.52;;;;;;;;;;5053745;28;20044;-64
2022/05/19 00:42:50;;;;;;;2.78;0.50;;;;;;;;;;5042514;28;20045;-65
2022/05/19 00:45:19;;;;;;;0.98;0.40;;;;;;;;;;5050526;28;20039;-66
2022/05/19 00:47:55;;;;;;;4.10;0.43;;;;;;;;;;5051418;28;20048;-66
2022/05/19 00:50:28;;;;;;;0.98;0.30;;;;;;;;;;5051762;28;20052;-66
2022/05/19 00:52:59;;;;;;;4.72;0.57;;;;;;;;;;5051411;28;20087;-66
2022/05/19 00:55:28;;;;;;;1.10;0.38;;;;;;;;;;5048707;28;20055;-66
2022/05/19 00:57:58;;;;;;;1.23;0.40;;;;;;;;;;5051285;28;20501;-64
2022/05/19 01:00:25;;;;;;;1.73;0.47;;;;;;;;;;5038987;28;20052;-64
2022/05/19 01:02:54;;;;;;;2.10;0.50;;;;;;;;;;5051503;28;20044;-64
2022/05/19 01:05:24;;;;;;;2.70;0.40;;;;;;;;;;5048620;28;20079;-66
2022/05/19 01:07:54;;;;;;;2.38;0.63;;;;;;;;;;5051626;28;20052;-64
2022/05/19 01:10:21;;;;;;;1.60;0.50;;;;;;;;;;5040730;28;20052;-65
2022/05/19 01:12:50;;;;;;;2.30;0.50;;;;;;;;;;5051424;28;20099;-66
2022/05/19 01:15:17;;;;;;;0.70;0.38;;;;;;;;;;5046516;28;20597;-65
2022/05/19 01:17:44;;;;;;;1.25;0.40;;;;;;;;;;5048776;28;20044;-64
2022/05/19 01:20:19;;;;;;;3.38;0.55;;;;;;;;;;5050049;28;21988;-65
2022/05/19 01:22:51;;;;;;;0.95;0.40;;;;;;;;;;5039035;28;20033;-65
2022/05/19 01:25:21;;;;;;;1.10;0.40;;;;;;;;;;5033723;28;20044;-66
2022/05/19 01:27:48;;;;;;;0.93;0.30;;;;;;;;;;5050669;28;20524;-66
2022/05/19 01:30:14;;;;;;;1.15;0.40;;;;;;;;;;5051484;28;20041;-66
2022/05/19 01:32:41;;;;;;;0.80;0.40;;;;;;;;;;5049734;28;20048;-66
2022/05/19 01:35:09;;;;;;;0.80;0.38;;;;;;;;;;5048588;28;20589;-65
2022/05/19 01:37:36;;;;;;;1.45;0.50;;;;;;;;;;5047441;28;20040;-66
2022/05/19 01:40:28;;;;;;;1.42;0.50;;;;;;;;;;5050504;28;20048;-66
2022/05/19 01:43:04;;;;;;;1.45;0.40;;;;;;;;;;5046289;28;20044;-66
2022/05/19 01:45:43;;;;;;;1.50;0.50;;;;;;;;;;5048206;28;20037;-66
2022/05/19 01:48:34;;;;;;;0.82;0.40;;;;;;;;;;5049921;28;20060;-66
2022/05/19 01:51:21;;;;;;;1.50;0.60;;;;;;;;;;5049450;28;20413;-66
2022/05/19 01:53:59;;;;;;;1.10;0.40;;;;;;;;;;5036642;28;20121;-65
2022/05/19 01:56:31;;;;;;;1.75;0.32;;;;;;;;;;5030096;28;20041;-65
2022/05/19 01:59:04;;;;;;;1.03;0.40;;;;;;;;;;5050374;28;20079;-65
2022/05/19 02:01:31;;;;;;;2.92;0.47;;;;;;;;;;5038686;28;20795;-65
2022/05/19 02:04:06;;;;;;;1.23;0.30;;;;;;;;;;5051857;28;20064;-65
2022/05/19 02:06:32;;;;;;;0.95;0.40;;;;;;;;;;5048746;28;20144;-65
2022/05/19 02:09:07;;;;;;;1.33;0.40;;;;;;;;;;5051341;28;20131;-65
2022/05/19 02:11:38;;;;;;;1.05;0.43;;;;;;;;;;5049956;28;20481;-66
2022/05/19 02:14:08;;;;;;;0.93;0.40;;;;;;;;;;5056571;28;20090;-64
2022/05/19 02:16:35;;;;;;;1.77;0.50;;;;;;;;;;5053842;28;21709;-66
2022/05/19 02:19:02;;;;;;;1.80;0.40;;;;;;;;;;5053577;28;20045;-66
2022/05/19 02:21:28;;;;;;;0.63;0.40;;;;;;;;;;5050320;28;20100;-65
2022/05/19 02:24:01;;;;;;;0.80;0.40;;;;;;;;;;5052778;28;20037;-65
2022/05/19 02:26:34;;;;;;;1.43;0.40;;;;;;;;;;5040204;28;20570;-65
2022/05/19 02:29:09;;;;;;;2.90;0.40;;;;;;;;;;5053162;28;20297;-65
2022/05/19 02:31:36;;;;;;;1.30;0.40;;;;;;;;;;5050871;28;20044;-65
2022/05/19 02:34:03;;;;;;;1.52;0.40;;;;;;;;;;5051478;28;20074;-64
2022/05/19 02:36:30;;;;;;;1.70;0.50;;;;;;;;;;5052359;28;20110;-65
2022/05/19 02:38:57;;;;;;;2.03;0.47;;;;;;;;;;5051058;28;20094;-66
2022/05/19 02:41:23;;;;;;;4.03;0.55;;;;;;;;;;5051002;28;20032;-65
2022/05/19 02:43:50;;;;;;;1.75;0.40;;;;;;;;;;5052141;28;20067;-65
2022/05/19 02:46:17;;;;;;;0.75;0.30;;;;;;;;;;5052967;28;20052;-65
2022/05/19 02:48:43;;;;;;;0.80;0.38;;;;;;;;;;5050377;28;20036;-65
2022/05/19 02:51:10;;;;;;;1.08;0.40;;;;;;;;;;5051157;28;20037;-64
2022/05/19 02:53:39;;;;;;;1.95;0.47;;;;;;;;;;5049513;28;20056;-65
2022/05/19 02:56:06;;;;;;;1.02;0.40;;;;;;;;;;5051349;28;20106;-65
2022/05/19 02:58:33;;;;;;;0.30;0.30;;;;;;;;;;5047902;28;20036;-61
2022/05/19 03:01:00;;;;;;;1.10;0.32;;;;;;;;;;5051103;28;20091;-66
2022/05/19 03:03:26;;;;;;;0.82;0.40;;;;;;;;;;5048363;28;20041;-66
2022/05/19 03:05:53;;;;;;;0.45;0.30;;;;;;;;;;5048411;28;20045;-65
2022/05/19 03:08:20;;;;;;;1.17;0.40;;;;;;;;;;5047452;28;20040;-66
2022/05/19 03:10:46;;;;;;;1.27;0.40;;;;;;;;;;5052841;28;20040;-65
2022/05/19 03:13:18;;;;;;;1.80;0.50;;;;;;;;;;5050908;28;20047;-64
2022/05/19 03:15:44;;;;;;;1.58;0.50;;;;;;;;;;5050600;28;20068;-65
2022/05/19 03:18:11;;;;;;;0.85;0.40;;;;;;;;;;5048423;28;20041;-64
2022/05/19 03:20:38;;;;;;;2.30;0.47;;;;;;;;;;5047112;28;20126;-65
2022/05/19 03:23:05;;;;;;;0.68;0.30;;;;;;;;;;5047184;28;20037;-64
2022/05/19 03:25:31;;;;;;;1.35;0.50;;;;;;;;;;5047300;28;20040;-65
2022/05/19 03:27:58;;;;;;;0.77;0.40;;;;;;;;;;5048837;28;20033;-67
2022/05/19 03:30:25;;;;;;;1.15;0.40;;;;;;;;;;5051389;28;20040;-66
2022/05/19 03:32:52;;;;;;;1.52;0.47;;;;;;;;;;5052180;28;20045;-64
2022/05/19 03:35:18;;;;;;;1.35;0.40;;;;;;;;;;5054544;28;20072;-64
2022/05/19 03:37:45;;;;;;;0.47;0.35;;;;;;;;;;5052911;28;20041;-65
2022/05/19 03:40:13;;;;;;;0.98;0.40;;;;;;;;;;5050899;28;20071;-65
2022/05/19 03:42:39;;;;;;;2.75;0.50;;;;;;;;;;5050221;28;20104;-65
2022/05/19 03:45:06;;;;;;;0.88;0.40;;;;;;;;;;5051420;28;20068;-64
2022/05/19 03:47:33;;;;;;;0.65;0.38;;;;;;;;;;5049378;28;20040;-64
2022/05/19 03:50:00;;;;;;;1.50;0.40;;;;;;;;;;5052601;28;20041;-64
2022/05/19 03:52:27;;;;;;;2.42;0.38;;;;;;;;;;5049477;28;20041;-64
2022/05/19 03:54:54;;;;;;;0.60;0.40;;;;;;;;;;5053992;28;20044;-65
2022/05/19 03:57:24;;;;;;;2.83;0.45;;;;;;;;;;5051773;28;20390;-64
2022/05/19 03:59:50;;;;;;;1.92;0.60;;;;;;;;;;5050982;28;20093;-64
2022/05/19 04:02:17;;;;;;;3.03;0.50;;;;;;;;;;5051399;28;20381;-64
2022/05/19 04:04:44;;;;;;;1.95;0.60;;;;;;;;;;5051067;28;20032;-66
2022/05/19 04:07:11;;;;;;;1.95;0.60;;;;;;;;;;5050438;28;20047;-65
2022/05/19 04:09:38;;;;;;;1.33;0.50;;;;;;;;;;5049508;28;20436;-66
2022/05/19 04:12:05;;;;;;;1.92;0.60;;;;;;;;;;5051757;28;20480;-63
2022/05/19 04:14:31;;;;;;;2.95;0.60;;;;;;;;;;5049367;28;20048;-65
2022/05/19 04:16:58;;;;;;;4.03;0.85;;;;;;;;;;5053725;28;20048;-65
2022/05/19 04:19:25;;;;;;;1.42;0.60;;;;;;;;;;5051967;28;20063;-65
2022/05/19 04:21:51;;;;;;;2.38;0.50;;;;;;;;;;5054006;28;20086;-65
2022/05/19 04:24:21;;;;;;;3.80;0.70;;;;;;;;;;5050867;28;20090;-66
2022/05/19 04:27:01;;;;;;;1.67;0.60;;;;;;;;;;5051939;28;20216;-65
2022/05/19 04:29:28;;;;;;;5.15;0.70;;;;;;;;;;5048626;28;20071;-64
2022/05/19 04:31:55;;;;;;;4.15;0.60;;;;;;;;;;5052353;28;20540;-64
2022/05/19 04:34:22;;;;;;;5.97;0.77;;;;;;;;;;5038461;28;20045;-64
2022/05/19 04:36:49;;;;;;;7.45;0.98;;;;;;;;;;5051336;28;20125;-65
2022/05/19 04:39:15;;;;;;;3.08;0.80;;;;;;;;;;5034702;28;20029;-65
2022/05/19 04:41:42;;;;;;;4.55;1.05;;;;;;;;;;5049314;28;20044;-65
2022/05/19 04:44:09;;;;;;;8.98;0.98;;;;;;;;;;5045329;28;20569;-66
2022/05/19 04:46:35;;;;;;;2.60;0.80;;;;;;;;;;5048002;28;20057;-64
2022/05/19 04:49:02;;;;;;;5.28;1.05;;;;;;;;;;5049397;28;20044;-65
2022/05/19 04:51:29;;;;;;;3.95;0.80;;;;;;;;;;5049175;28;20915;-64
2022/05/19 04:53:55;;;;;;;7.05;1.02;;;;;;;;;;5039489;28;20036;-64
2022/05/19 04:56:22;;;;;;;1.48;0.65;;;;;;;;;;5049840;28;20040;-65
2022/05/19 04:58:49;;;;;;;6.97;0.90;;;;;;;;;;5051203;28;20566;-64
2022/05/19 05:01:15;;;;;;;3.90;0.80;;;;;;;;;;5049384;28;20464;-64
2022/05/19 05:03:45;;;;;;;2.40;0.68;;;;;;;;;;5046593;28;20515;-67
2022/05/19 05:06:12;;;;;;;2.70;0.80;;;;;;;;;;5049271;28;20041;-64
2022/05/19 05:08:39;;;;;;;2.10;0.70;;;;;;;;;;5049998;28;20037;-65
2022/05/19 05:11:05;;;;;;;6.85;1.02;;;;;;;;;;5048210;28;20086;-65
2022/05/19 05:13:32;;;;;;;5.28;0.90;;;;;;;;;;5048075;28;20037;-64
2022/05/19 05:15:59;;;;;;;4.45;0.85;;;;;;;;;;5050863;28;20055;-64
2022/05/19 05:18:25;;;;;;;3.78;0.90;;;;;;;;;;5049268;28;20048;-64
2022/05/19 05:20:52;;;;;;;5.63;1.25;;;;;;;;;;5049147;28;20378;-64
2022/05/19 05:23:19;;;;;;;3.60;1.00;;;;;;;;;;5036895;28;20047;-65
2022/05/19 05:25:46;;;;;;;6.25;0.98;;;;;;;;;;5049120;28;20039;-66
2022/05/19 05:28:13;;;;;;;9.90;1.20;;;;;;;;;;5049449;28;20033;-64
2022/05/19 05:30:39;;;;;;;6.95;1.15;;;;;;;;;;5047698;28;20060;-64
2022/05/19 05:33:07;;;;;;;2.80;0.90;;;;;;;;;;5048638;28;20048;-65
2022/05/19 05:35:35;;;;;;;4.85;1.10;;;;;;;;;;5048950;28;20049;-64
2022/05/19 05:38:01;;;;;;;6.65;1.23;;;;;;;;;;5050313;28;20072;-64
2022/05/19 05:40:28;;;;;;;5.30;1.00;;;;;;;;;;5048705;28;20033;-64
2022/05/19 05:42:55;;;;;;;8.25;1.17;;;;;;;;;;5049913;28;20669;-65
2022/05/19 05:45:22;;;;;;;6.90;0.95;;;;;;;;;;5047794;28;20099;-65
2022/05/19 05:47:49;;;;;;;7.07;1.00;;;;;;;;;;5053692;28;20086;-64
2022/05/19 05:50:15;;;;;;;13.52;1.10;;;;;;;;;;5053244;28;20063;-65
2022/05/19 05:52:42;;;;;;;4.60;1.05;;;;;;;;;;5048067;28;20114;-65
2022/05/19 05:55:09;;;;;;;2.33;0.80;;;;;;;;;;5051831;28;20053;-66
2022/05/19 05:57:36;;;;;;;6.25;1.02;;;;;;;;;;5052125;28;20036;-64
2022/05/19 06:00:04;;;;;;;2.17;0.70;;;;;;;;;;5043299;28;20516;-65
2022/05/19 06:02:31;;;;;;;4.00;1.20;;;;;;;;;;5048656;28;20073;-64
2022/05/19 06:04:58;;;;;;;8.95;2.40;;;;;;;;;;5048611;28;20543;-64
2022/05/19 06:07:27;;;;;;;3.90;1.30;;;;;;;;;;5033566;28;20544;-64
2022/05/19 06:09:54;;;;;;;4.63;0.90;;;;;;;;;;5049196;28;20091;-64
2022/05/19 06:12:21;;;;;;;3.50;1.10;;;;;;;;;;5049094;28;20043;-64
2022/05/19 06:14:48;;;;;;;5.78;1.13;;;;;;;;;;5049208;28;21687;-64
2022/05/19 06:17:15;;;;;;;4.45;1.00;;;;;;;;;;5050078;28;20059;-65
2022/05/19 06:19:42;;;;;;;3.22;1.00;;;;;;;;;;5050537;28;20056;-63
2022/05/19 06:22:09;;;;;;;4.30;1.00;;;;;;;;;;5053218;28;20041;-65
2022/05/19 06:24:35;;;;;;;5.57;1.08;;;;;;;;;;5051196;28;20620;-63
2022/05/19 06:27:02;;;;;;;6.65;0.80;;;;;;;;;;5050666;28;20069;-64
2022/05/19 06:29:29;;;;;;;4.82;0.80;;;;;;;;;;5030046;28;20532;-64
2022/05/19 06:31:56;;;;;;;4.03;0.90;;;;;;;;;;5033677;28;20044;-64
2022/05/19 06:34:22;;;;;;;4.53;0.80;;;;;;;;;;5048828;28;20056;-64
2022/05/19 06:36:49;;;;;;;6.15;0.95;;;;;;;;;;5048359;28;20104;-64
2022/05/19 06:39:16;;;;;;;3.38;0.63;;;;;;;;;;5047831;28;20048;-64
2022/05/19 06:42:02;;;;;;;3.00;0.98;;;;;;;;;;5046380;28;20037;-65
2022/05/19 06:44:34;;;;;;;3.33;0.90;;;;;;;;;;5046151;28;20120;-65
2022/05/19 06:47:02;;;;;;;1.60;0.55;;;;;;;;;;5048033;28;20056;-65
2022/05/19 06:49:29;;;;;;;5.78;0.68;;;;;;;;;;5046652;28;20036;-65
2022/05/19 06:51:56;;;;;;;2.55;0.70;;;;;;;;;;5047232;28;20075;-65
2022/05/19 06:54:23;;;;;;;1.50;0.60;;;;;;;;;;5046841;28;20037;-65
2022/05/19 06:56:49;;;;;;;2.60;0.70;;;;;;;;;;5047576;28;20047;-65
2022/05/19 06:59:16;;;;;;;4.65;0.70;;;;;;;;;;5048861;28;20032;-65
2022/05/19 07:01:44;;;;;;;1.13;0.47;;;;;;;;;;5047881;28;20040;-65
2022/05/19 07:04:11;;;;;;;2.17;0.60;;;;;;;;;;5050263;28;20040;-64
2022/05/19 07:06:38;;;;;;;1.27;0.40;;;;;;;;;;5050861;28;20041;-63
2022/05/19 07:09:04;;;;;;;2.38;0.50;;;;;;;;;;5051509;28;20073;-63
2022/05/19 07:11:31;;;;;;;0.68;0.40;;;;;;;;;;5050119;28;20049;-64
2022/05/19 07:14:00;;;;;;;1.20;0.40;;;;;;;;;;5050609;28;20039;-64
2022/05/19 07:16:28;;;;;;;1.27;0.50;;;;;;;;;;5051590;28;20127;-64
2022/05/19 07:21:43;;;;;;;0.90;0.40;;;;;;;;;;5049590;28;20095;-64
2022/05/19 07:24:14;;;;;;;2.45;0.50;;;;;;;;;;5035215;28;20493;-63
2022/05/19 07:26:42;;;;;;;4.38;0.57;;;;;;;;;;5049834;28;20191;-63
2022/05/19 07:29:09;;;;;;;3.88;0.63;;;;;;;;;;5032693;28;20045;-63
2022/05/19 07:31:36;;;;;;;2.35;0.60;;;;;;;;;;5049983;28;20037;-64
2022/05/19 07:34:04;;;;;;;2.70;0.50;;;;;;;;;;5050601;28;20074;-63
2022/05/19 07:36:32;;;;;;;1.65;0.50;;;;;;;;;;5033065;28;20057;-64
2022/05/19 07:39:02;;;;;;;2.42;0.70;;;;;;;;;;5052453;28;20033;-64
2022/05/19 07:41:29;;;;;;;3.08;0.50;;;;;;;;;;5052003;28;20037;-64
2022/05/19 07:43:57;;;;;;;1.55;0.50;;;;;;;;;;5051738;28;20136;-64
2022/05/19 07:46:27;;;;;;;2.05;0.60;;;;;;;;;;5050940;28;20151;-64
2022/05/19 07:48:55;;;;;;;1.63;0.50;;;;;;;;;;5051718;28;20482;-63
2022/05/19 07:51:25;;;;;;;0.77;0.50;;;;;;;;;;5051135;28;20052;-64
2022/05/19 07:53:52;;;;;;;1.88;0.60;;;;;;;;;;5050286;28;20036;-64
2022/05/19 07:56:20;;;;;;;0.93;0.40;;;;;;;;;;5051025;28;20041;-65
2022/05/19 07:58:46;;;;;;;1.35;0.50;;;;;;;;;;5053149;28;20045;-64
2022/05/19 08:01:14;;;;;;;3.70;0.70;;;;;;;;;;5052307;28;20029;-66
2022/05/19 08:03:41;;;;;;;1.83;0.70;;;;;;;;;;5052869;28;20037;-64
2022/05/19 08:06:10;;;;;;;2.47;0.50;;;;;;;;;;5052508;28;20429;-65
2022/05/19 08:08:40;;;;;;;2.67;0.70;;;;;;;;;;5052431;28;20116;-65
2022/05/19 08:11:07;;;;;;;1.73;0.60;;;;;;;;;;5054503;28;20037;-66
2022/05/19 08:16:19;;;;;;;1.88;0.60;;;;;;;;;;5049877;28;20145;-65
2022/05/19 08:18:46;;;;;;;1.75;0.60;;;;;;;;;;5051775;28;20086;-65
2022/05/19 08:21:13;;;;;;;2.22;0.63;;;;;;;;;;5052230;28;20041;-64
2022/05/19 08:23:41;;;;;;;1.48;0.50;;;;;;;;;;5051459;28;20044;-64
2022/05/19 08:26:08;;;;;;;2.63;0.80;;;;;;;;;;5051659;28;20033;-64
2022/05/19 08:28:36;;;;;;;1.30;0.40;;;;;;;;;;5048869;28;20048;-63
2022/05/19 08:31:04;;;;;;;1.67;0.50;;;;;;;;;;5049544;28;20040;-63
2022/05/19 08:33:31;;;;;;;2.25;0.68;;;;;;;;;;5046477;28;20033;-63
2022/05/19 08:35:57;;;;;;;2.78;0.73;;;;;;;;;;5048940;28;20045;-63
2022/05/19 08:38:24;;;;;;;2.25;0.68;;;;;;;;;;5052054;28;20043;-64
2022/05/19 08:40:51;;;;;;;1.65;0.50;;;;;;;;;;5051402;28;20370;-63
2022/05/19 08:43:19;;;;;;;1.50;0.60;;;;;;;;;;5047811;28;20036;-64
2022/05/19 08:45:55;;;;;;;1.60;0.50;;;;;;;;;;5051358;28;20055;-63
2022/05/19 08:48:24;;;;;;;1.83;0.60;;;;;;;;;;5051549;28;20040;-62
2022/05/19 08:51:10;;;;;;;1.60;0.50;;;;;;;;;;5052248;28;20440;-63
2022/05/19 08:53:41;;;;;;;2.08;0.70;;;;;;;;;;5052113;28;20040;-62
2022/05/19 08:56:28;;;;;;;2.38;0.70;;;;;;;;;;5051112;28;20045;-61
2022/05/19 08:59:13;;;;;;;2.70;0.80;;;;;;;;;;5050038;28;20036;-62
2022/05/19 09:01:52;;;;;;;1.83;0.60;;;;;;;;;;5047806;28;20040;-61
2022/05/19 09:04:26;;;;;;;2.15;0.60;;;;;;;;;;5050322;28;20052;-62
2022/05/19 09:10:13;;;;;;;1.73;0.50;;;;;;;;;;5015868;28;20071;-61
2022/05/19 09:12:40;;;;;;;3.00;0.55;;;;;;;;;;5048154;28;20037;-62
2022/05/19 09:15:09;;;;;;;4.72;0.70;;;;;;;;;;5047863;28;20104;-62
2022/05/19 09:17:38;;;;;;;1.65;0.50;;;;;;;;;;5048791;28;20640;-62
2022/05/19 09:20:10;;;;;;;1.90;0.60;;;;;;;;;;5050487;28;20045;-63
2022/05/19 09:22:37;;;;;;;1.92;0.50;;;;;;;;;;5047287;28;20045;-63
2022/05/19 09:25:10;;;;;;;1.48;0.60;;;;;;;;;;5047137;28;20124;-64
2022/05/19 09:27:40;;;;;;;1.52;0.50;;;;;;;;;;5049377;28;20042;-64
2022/05/19 09:30:13;;;;;;;1.70;0.50;;;;;;;;;;5050012;28;20048;-65
2022/05/19 09:32:45;;;;;;;1.98;0.50;;;;;;;;;;5047032;28;20499;-65
2022/05/19 09:35:14;;;;;;;1.83;0.60;;;;;;;;;;5050017;28;20033;-65
2022/05/19 09:37:45;;;;;;;7.15;0.50;;;;;;;;;;5049695;28;20437;-64
2022/05/19 09:40:12;;;;;;;1.48;0.40;;;;;;;;;;5050161;28;20795;-64
2022/05/19 09:43:03;;;;;;;1.63;0.50;;;;;;;;;;5049174;28;20040;-64
2022/05/19 09:45:30;;;;;;;1.58;0.60;;;;;;;;;;5051893;28;20056;-64
2022/05/19 09:48:01;;;;;;;1.10;0.40;;;;;;;;;;5051828;28;20397;-64
2022/05/19 09:50:30;;;;;;;1.80;0.50;;;;;;;;;;5049864;28;20104;-65
2022/05/19 09:53:04;;;;;;;2.78;0.55;;;;;;;;;;5050232;28;20068;-64
2022/05/19 09:55:31;;;;;;;2.10;0.60;;;;;;;;;;5049947;28;20068;-64
2022/05/19 09:58:00;;;;;;;2.40;0.60;;;;;;;;;;5052053;28;20049;-64
2022/05/19 10:00:33;;;;;;;1.98;0.60;;;;;;;;;;5050458;28;20037;-64
2022/05/19 10:03:01;;;;;;;1.63;0.50;;;;;;;;;;5050792;28;20040;-64
2022/05/19 10:05:34;;;;;;;1.58;0.60;;;;;;;;;;5050185;28;20036;-64
2022/05/19 10:08:06;;;;;;;1.98;0.68;;;;;;;;;;5052116;28;20045;-65
2022/05/19 10:10:43;;;;;;;1.80;0.60;;;;;;;;;;5052408;28;20049;-63
2022/05/19 10:13:12;;;;;;;1.30;0.43;;;;;;;;;;5051875;28;20124;-65
2022/05/19 10:15:45;;;;;;;1.65;0.57;;;;;;;;;;5051682;28;20044;-65
2022/05/19 10:18:12;;;;;;;2.55;0.52;;;;;;;;;;5050845;28;20045;-65
2022/05/19 10:20:45;;;;;;;2.10;0.70;;;;;;;;;;5050435;28;20087;-64
2022/05/19 10:23:20;;;;;;;4.05;0.70;;;;;;;;;;5050575;28;20029;-64
2022/05/19 10:25:47;;;;;;;1.92;0.80;;;;;;;;;;5042578;28;20032;-65
2022/05/19 10:31:18;;;;;;;2.47;0.77;;;;;;;;;;5050027;28;20043;-65
2022/05/19 10:34:03;;;;;;;1.48;0.50;;;;;;;;;;5047531;28;20048;-64
2022/05/19 10:36:48;;;;;;;1.88;0.60;;;;;;;;;;5048179;28;20052;-64
2022/05/19 10:39:27;;;;;;;1.85;0.50;;;;;;;;;;5050928;28;20045;-65
2022/05/19 10:42:03;;;;;;;2.42;0.70;;;;;;;;;;5051194;28;20528;-64
2022/05/19 10:44:49;;;;;;;2.22;0.80;;;;;;;;;;5048717;28;20394;-64
2022/05/19 10:47:19;;;;;;;1.95;0.55;;;;;;;;;;5038293;28;20080;-64
2022/05/19 10:49:48;;;;;;;2.17;0.65;;;;;;;;;;5034771;28;20036;-63
2022/05/19 10:52:33;;;;;;;2.20;0.70;;;;;;;;;;5036006;28;20481;-62
2022/05/19 10:55:08;;;;;;;1.73;0.60;;;;;;;;;;5033268;28;20478;-63
2022/05/19 10:57:50;;;;;;;1.48;0.55;;;;;;;;;;5032954;28;20056;-64
2022/05/19 11:00:22;;;;;;;1.98;0.60;;;;;;;;;;5034865;28;20045;-64
2022/05/19 11:03:07;;;;;;;2.33;0.70;;;;;;;;;;5035317;28;20087;-63
2022/05/19 11:05:39;;;;;;;2.08;0.60;;;;;;;;;;5030337;28;20080;-64
2022/05/19 11:08:12;;;;;;;2.75;0.70;;;;;;;;;;5029777;28;20750;-64
2022/05/19 11:10:57;;;;;;;1.43;0.60;;;;;;;;;;5029083;28;20043;-63
2022/05/19 11:13:42;;;;;;;2.25;0.80;;;;;;;;;;5030911;28;20971;-63
2022/05/19 11:16:10;;;;;;;3.38;0.65;;;;;;;;;;5030576;28;20045;-64
2022/05/19 11:18:46;;;;;;;2.33;0.77;;;;;;;;;;5028775;28;20489;-63
2022/05/19 11:21:26;;;;;;;2.05;0.68;;;;;;;;;;5019976;28;20069;-63
2022/05/19 11:23:53;;;;;;;2.20;0.77;;;;;;;;;;5027189;28;20029;-64
2022/05/19 11:26:32;;;;;;;2.03;0.80;;;;;;;;;;5029341;28;20056;-64
2022/05/19 11:29:18;;;;;;;3.70;0.80;;;;;;;;;;5031446;28;20049;-63
2022/05/19 11:31:51;;;;;;;2.40;0.85;;;;;;;;;;5028609;28;20514;-64
2022/05/19 11:34:36;;;;;;;2.50;0.80;;;;;;;;;;5029600;28;20048;-64
2022/05/19 11:37:03;;;;;;;2.60;0.90;;;;;;;;;;5029938;28;20058;-64
2022/05/19 11:39:45;;;;;;;2.90;0.70;;;;;;;;;;5030008;28;20044;-64
2022/05/19 11:42:17;;;;;;;2.92;1.00;;;;;;;;;;5029902;28;20049;-64
2022/05/19 11:44:46;;;;;;;2.80;0.87;;;;;;;;;;5028686;28;20041;-64
2022/05/19 11:55:57;;;;;;;2.35;0.93;;;;;;;;;;5033453;28;20047;-65
2022/05/19 11:58:28;;;;;;;2.00;0.60;;;;;;;;;;5015246;28;20037;-64
2022/05/19 12:01:00;;;;;;;2.03;0.80;;;;;;;;;;5032847;28;20116;-65
2022/05/19 12:03:56;;;;;;;3.05;0.88;;;;;;;;;;5032791;28;20050;-64
2022/05/19 12:06:41;;;;;;;2.28;0.80;;;;;;;;;;5001362;28;20153;-64
2022/05/19 12:09:18;;;;;;;4.80;0.85;;;;;;;;;;5033094;28;20048;-64
2022/05/19 12:11:45;;;;;;;2.47;0.73;;;;;;;;;;5026123;28;20121;-64
2022/05/19 12:14:18;;;;;;;3.85;0.80;;;;;;;;;;5036971;28;20068;-65
2022/05/19 12:16:52;;;;;;;3.58;0.80;;;;;;;;;;5033774;28;20052;-64
2022/05/19 12:19:38;;;;;;;1.80;0.60;;;;;;;;;;5032859;28;20132;-64
2022/05/19 12:22:06;;;;;;;2.10;0.60;;;;;;;;;;5032819;28;20148;-65
2022/05/19 12:24:36;;;;;;;1.83;0.73;;;;;;;;;;5031969;28;20033;-65
2022/05/19 12:27:11;;;;;;;2.25;0.70;;;;;;;;;;5031743;28;20029;-65
2022/05/19 12:29:54;;;;;;;1.98;0.70;;;;;;;;;;5031416;28;20045;-65
2022/05/19 12:32:23;;;;;;;4.40;0.90;;;;;;;;;;5014574;28;20044;-65
2022/05/19 12:34:51;;;;;;;2.50;0.90;;;;;;;;;;5032235;28;20033;-65
2022/05/19 12:37:30;;;;;;;1.65;0.63;;;;;;;;;;5032116;28;20409;-65
2022/05/19 12:40:18;;;;;;;2.45;0.68;;;;;;;;;;5032220;28;20087;-64
2022/05/19 12:42:45;;;;;;;2.10;0.60;;;;;;;;;;5011296;28;20052;-64
2022/05/19 12:45:34;;;;;;;2.40;0.77;;;;;;;;;;5030481;28;20510;-65
2022/05/19 12:48:20;;;;;;;1.48;0.60;;;;;;;;;;5033402;28;20045;-63
2022/05/19 12:50:50;;;;;;;1.75;0.60;;;;;;;;;;5031340;28;20045;-64
2022/05/19 12:53:23;;;;;;;1.73;0.60;;;;;;;;;;5035923;28;20064;-65
2022/05/19 12:55:50;;;;;;;3.28;0.70;;;;;;;;;;5033803;28;20149;-65
2022/05/19 12:58:55;;;;;;;2.17;0.75;;;;;;;;;;5032281;28;20033;-65
2022/05/19 13:01:29;;;;;;;1.90;0.60;;;;;;;;;;4955469;28;20042;-62
2022/05/19 13:04:14;;;;;;;3.05;0.70;;;;;;;;;;4959003;28;20081;-64
2022/05/19 13:06:59;;;;;;;1.75;0.52;;;;;;;;;;5006006;28;20051;-65
2022/05/19 13:09:30;;;;;;;1.38;0.60;;;;;;;;;;5030027;28;20475;-65
2022/05/19 13:12:00;;;;;;;2.17;0.70;;;;;;;;;;5033302;28;20040;-64
2022/05/19 13:14:29;;;;;;;2.30;0.70;;;;;;;;;;5014135;28;20044;-66
2022/05/19 13:16:56;;;;;;;5.88;0.68;;;;;;;;;;5035030;28;20042;-64
2022/05/19 13:19:24;;;;;;;1.85;0.60;;;;;;;;;;5030469;28;20042;-63
2022/05/19 13:21:53;;;;;;;6.15;0.80;;;;;;;;;;5032091;28;20124;-64
2022/05/19 13:24:20;;;;;;;12.90;0.90;;;;;;;;;;5030196;28;20148;-64
2022/05/19 13:30:20;;;;;;;2.30;0.70;;;;;;;;;;5031308;28;20116;-63
2022/05/19 13:32:29;;;;;;;3.58;0.80;;;;;;;;;;5032952;28;20401;-63
2022/05/19 13:34:56;;;;;;;2.55;0.60;;;;;;;;;;5033864;28;20387;-63
2022/05/19 13:37:34;;;;;;;2.25;0.70;;;;;;;;;;5030802;28;20053;-61
2022/05/19 13:40:10;;;;;;;4.72;0.60;;;;;;;;;;5031331;28;20351;-64
2022/05/19 13:42:38;;;;;;;2.50;0.77;;;;;;;;;;5032185;28;20049;-64
2022/05/19 13:45:05;;;;;;;3.67;0.77;;;;;;;;;;5026964;28;20721;-63
2022/05/19 13:47:32;;;;;;;3.08;0.60;;;;;;;;;;5031249;28;20076;-63
2022/05/19 13:50:04;;;;;;;5.45;1.00;;;;;;;;;;5032133;28;20144;-64
2022/05/19 13:52:35;;;;;;;1.55;0.52;;;;;;;;;;5033340;28;20067;-65
2022/05/19 13:55:03;;;;;;;3.47;0.70;;;;;;;;;;5034171;28;20056;-66
2022/05/19 13:57:33;;;;;;;2.92;0.50;;;;;;;;;;5029939;28;20084;-65
2022/05/19 14:00:03;;;;;;;4.50;0.70;;;;;;;;;;5033359;28;20089;-65
2022/05/19 14:02:30;;;;;;;1.55;0.50;;;;;;;;;;5032053;28;20052;-63
2022/05/19 14:04:57;;;;;;;3.55;0.65;;;;;;;;;;5032483;28;20094;-65
2022/05/19 14:07:24;;;;;;;4.43;0.90;;;;;;;;;;5029207;28;20062;-65
2022/05/19 14:09:56;;;;;;;4.28;0.70;;;;;;;;;;5029267;28;20037;-65
2022/05/19 14:12:40;;;;;;;5.25;0.77;;;;;;;;;;5034100;28;20079;-65
2022/05/19 14:15:16;;;;;;;4.95;0.75;;;;;;;;;;5033460;28;20086;-65
2022/05/19 14:17:48;;;;;;;2.78;0.70;;;;;;;;;;5031744;28;21059;-65
2022/05/19 14:20:37;;;;;;;9.70;0.80;;;;;;;;;;5021765;28;20025;-65
2022/05/19 14:23:07;;;;;;;2.17;0.68;;;;;;;;;;5007878;28;20097;-66
2022/05/19 14:25:38;;;;;;;1.40;0.50;;;;;;;;;;5012545;28;20068;-64
2022/05/19 14:28:23;;;;;;;3.25;0.82;;;;;;;;;;5011651;28;20042;-64
2022/05/19 14:30:52;;;;;;;2.65;0.60;;;;;;;;;;5018081;28;20045;-65
2022/05/19 14:33:21;;;;;;;1.55;0.50;;;;;;;;;;5030897;28;20041;-65
2022/05/19 14:35:48;;;;;;;6.13;0.88;;;;;;;;;;5013282;28;20038;-65
2022/05/19 14:38:34;;;;;;;1.90;0.70;;;;;;;;;;5014219;28;20046;-65
2022/05/19 14:43:51;;;;;;;6.78;0.70;;;;;;;;;;5012783;28;20072;-65
2022/05/19 14:46:20;;;;;;;2.28;0.65;;;;;;;;;;5030335;28;20045;-66
2022/05/19 14:48:51;;;;;;;2.78;0.70;;;;;;;;;;5049486;28;20202;-65
2022/05/19 14:51:31;;;;;;;3.83;0.70;;;;;;;;;;5048731;28;20052;-65
2022/05/19 14:53:59;;;;;;;2.22;0.60;;;;;;;;;;5050597;28;20055;-65
2022/05/19 14:56:29;;;;;;;2.20;0.77;;;;;;;;;;5048801;28;20049;-65
2022/05/19 14:59:01;;;;;;;2.65;0.70;;;;;;;;;;5040895;28;20040;-65
2022/05/19 15:01:28;;;;;;;1.30;0.40;;;;;;;;;;5050151;28;20053;-65
2022/05/19 15:03:54;;;;;;;2.83;0.68;;;;;;;;;;5045861;28;20045;-64
2022/05/19 15:06:21;;;;;;;1.50;0.50;;;;;;;;;;5049922;28;20083;-64
2022/05/19 15:08:54;;;;;;;1.15;0.50;;;;;;;;;;5049655;28;20048;-64
2022/05/19 15:11:21;;;;;;;;;;;;;;;;;;5049488;28;20055;-64
2022/05/19 15:13:48;;;;;;;11.27;0.95;;;;;;;;;;5048479;28;19916;-65
2022/05/19 15:16:15;;;;;;;10.93;1.10;;;;;;;;;;5049254;28;20079;-64
2022/05/19 15:18:42;;;;;;;11.77;1.23;;;;;;;;;;5049153;28;20560;-64
2022/05/19 15:21:09;;;;;;;5.80;0.77;;;;;;;;;;5048360;28;20036;-65
2022/05/19 15:23:39;;;;;;;6.32;0.82;;;;;;;;;;5046980;28;20041;-65
2022/05/19 15:26:06;;;;;;;2.08;0.68;;;;;;;;;;5052042;28;20094;-65
2022/05/19 15:28:35;;;;;;;5.07;0.70;;;;;;;;;;5050353;28;20045;-65